KNKX/NKX METAR and TAF weather

Enter ICAO airport designator
Station Type Date Time Source
KNKX METAR 2021/10/20 06:55 UTC NOAA

KNKX 200655Z 07005KT 10SM CLR 09/08 A3007 RMK AO2 SLP178 T00940078 $


Station Type Date Time Source
KNKX Decoded METAR 2021/10/20 06:55 UTC NOAA

MCAS MIRAMAR, CA, United States (KNKX) 32-52N 117-09W 146M
Oct 20, 2021 - 02:55 AM EDT / 2021.10.20 0655 UTC
Wind: from the ENE (070 degrees) at 6 MPH (5 KT):0
Visibility: 10 mile(s):0
Sky conditions: clear
Temperature: 48.9 F (9.4 C)
Dew Point: 46.0 F (7.8 C)
Relative Humidity: 89%
Pressure (altimeter): 30.07 in. Hg (1018 hPa)
ob: KNKX 200655Z 07005KT 10SM CLR 09/08 A3007 RMK AO2 SLP178 T00940078
cycle: 7

Station Type Date Time Source
KNKX TAF 2021/10/20 03:04 UTC NOAA

TAF KNKX 2003/2103 VRB05KT 9999 SKC QNH3001INS
BECMG 2019/2021 30008KT 9999 SKC QNH3004INS
BECMG 2100/2102 VRB05KT 9999 SKC QNH3002INS T09/2014Z T21/2021Z

Example: see airport list